Time;durP1;ratioP1;P1;durP2;ratioP2;P2;SDS_P1;SDS_P2;PMS_P1;PMS_P2;Temp;Humidity;BMP_temperature;BMP_pressure;BME280_temperature;BME280_humidity;BME280_pressure;Samples;Min_cycle;Max_cycle;Signal;HPM_P1;HPM_P2
2024/01/05 00:00:06;;;;;;;1524.40;999.90;;;;;;;;;;5015533;28;20022;-67
2024/01/05 00:02:32;;;;;;;1522.07;999.90;;;;;;;;;;5015439;28;20081;-67
2024/01/05 00:04:59;;;;;;;1510.05;999.90;;;;;;;;;;5015218;28;20038;-67
2024/01/05 00:07:25;;;;;;;1538.38;999.90;;;;;;;;;;5015309;28;20026;-68
2024/01/05 00:09:52;;;;;;;1495.28;999.90;;;;;;;;;;5015124;28;20022;-68
2024/01/05 00:12:19;;;;;;;1532.05;999.90;;;;;;;;;;5015250;28;20471;-69
2024/01/05 00:14:45;;;;;;;1529.65;999.90;;;;;;;;;;5015180;28;20030;-68
2024/01/05 00:17:12;;;;;;;1523.18;999.90;;;;;;;;;;5015280;28;20549;-67
2024/01/05 00:19:38;;;;;;;1510.65;999.90;;;;;;;;;;4997890;28;20444;-67
2024/01/05 00:22:05;;;;;;;1509.00;999.90;;;;;;;;;;5015168;28;20382;-68
2024/01/05 00:24:32;;;;;;;1479.05;999.90;;;;;;;;;;5015524;28;20072;-67
2024/01/05 00:26:59;;;;;;;1481.25;999.90;;;;;;;;;;5015065;28;20026;-67
2024/01/05 00:29:25;;;;;;;1324.65;999.90;;;;;;;;;;5014977;28;20467;-67
2024/01/05 00:31:52;;;;;;;1490.07;999.90;;;;;;;;;;5014632;28;20026;-67
2024/01/05 00:34:19;;;;;;;1490.25;999.90;;;;;;;;;;5014779;28;20030;-68
2024/01/05 00:36:45;;;;;;;1488.25;999.90;;;;;;;;;;5014767;28;20102;-68
2024/01/05 00:39:12;;;;;;;1485.13;999.90;;;;;;;;;;5014653;28;20029;-68
2024/01/05 00:41:39;;;;;;;1354.05;999.90;;;;;;;;;;5014711;28;20033;-68
2024/01/05 00:44:05;;;;;;;1493.07;999.90;;;;;;;;;;5014532;28;20022;-68
2024/01/05 00:46:32;;;;;;;1496.20;999.90;;;;;;;;;;5014488;28;20018;-68
2024/01/05 00:48:58;;;;;;;1355.85;999.90;;;;;;;;;;5014827;28;20059;-67
2024/01/05 00:51:25;;;;;;;1510.60;999.90;;;;;;;;;;5014608;28;20022;-68
2024/01/05 00:53:52;;;;;;;1481.75;999.90;;;;;;;;;;5014431;28;20360;-69
2024/01/05 00:56:18;;;;;;;1484.82;999.90;;;;;;;;;;5014358;28;20025;-68
2024/01/05 00:58:45;;;;;;;1480.38;999.90;;;;;;;;;;5014563;28;20394;-67
2024/01/05 01:01:11;;;;;;;1495.15;999.90;;;;;;;;;;5014443;28;20144;-68
2024/01/05 01:03:38;;;;;;;1479.85;999.90;;;;;;;;;;5014212;28;20021;-68
2024/01/05 01:06:05;;;;;;;1483.07;999.90;;;;;;;;;;5014141;28;20069;-67
2024/01/05 01:08:31;;;;;;;1482.93;999.90;;;;;;;;;;5014248;28;20025;-68
2024/01/05 01:11:00;;;;;;;1441.60;999.90;;;;;;;;;;5014192;28;20029;-67
2024/01/05 01:13:27;;;;;;;1347.07;999.90;;;;;;;;;;5014397;28;20037;-69
2024/01/05 01:15:53;;;;;;;1464.70;999.90;;;;;;;;;;5014419;28;20053;-67
2024/01/05 01:18:20;;;;;;;1362.03;999.90;;;;;;;;;;5007733;28;20113;-67
2024/01/05 01:20:46;;;;;;;1503.55;999.90;;;;;;;;;;5014232;28;20479;-67
2024/01/05 01:23:13;;;;;;;1487.05;999.90;;;;;;;;;;5014190;28;20037;-67
2024/01/05 01:25:40;;;;;;;1479.65;999.90;;;;;;;;;;5007618;28;20117;-67
2024/01/05 01:28:08;;;;;;;1473.90;999.90;;;;;;;;;;5013997;28;20497;-66
2024/01/05 01:30:35;;;;;;;1511.53;999.90;;;;;;;;;;5002190;28;20037;-67
2024/01/05 01:33:02;;;;;;;1558.88;999.90;;;;;;;;;;4994222;28;20101;-67
2024/01/05 01:35:28;;;;;;;1425.75;999.90;;;;;;;;;;4994736;28;20054;-67
2024/01/05 01:37:55;;;;;;;1516.88;999.90;;;;;;;;;;4994359;28;20134;-67
2024/01/05 01:40:21;;;;;;;1527.63;999.90;;;;;;;;;;4994154;28;20026;-67
2024/01/05 01:42:49;;;;;;;1526.70;999.90;;;;;;;;;;5001477;28;20017;-68
2024/01/05 01:45:16;;;;;;;1550.03;999.90;;;;;;;;;;4994438;28;20058;-67
2024/01/05 01:47:43;;;;;;;1389.82;999.90;;;;;;;;;;4993816;28;20033;-67
2024/01/05 01:50:10;;;;;;;1523.50;999.90;;;;;;;;;;4994162;28;20022;-67
2024/01/05 01:52:37;;;;;;;1384.30;999.90;;;;;;;;;;4994107;28;20149;-68
2024/01/05 01:55:04;;;;;;;1503.82;999.90;;;;;;;;;;4993816;28;20273;-67
2024/01/05 01:57:31;;;;;;;1540.88;999.90;;;;;;;;;;4993991;28;20069;-67
2024/01/05 01:59:58;;;;;;;1558.10;999.90;;;;;;;;;;4993944;28;20038;-67
2024/01/05 02:02:24;;;;;;;1557.22;999.90;;;;;;;;;;4993682;28;20383;-67
2024/01/05 02:04:51;;;;;;;1454.32;999.90;;;;;;;;;;4993839;28;20511;-67
2024/01/05 02:07:18;;;;;;;1560.35;999.90;;;;;;;;;;4994075;28;20110;-67
2024/01/05 02:09:45;;;;;;;1420.95;999.90;;;;;;;;;;4993853;28;20051;-67
2024/01/05 02:12:11;;;;;;;1454.97;999.90;;;;;;;;;;4994113;28;20014;-67
2024/01/05 02:14:39;;;;;;;1570.03;999.90;;;;;;;;;;4993999;28;20022;-67
2024/01/05 02:17:25;;;;;;;1487.13;999.90;;;;;;;;;;4993911;28;20030;-67
2024/01/05 02:19:52;;;;;;;1559.45;999.90;;;;;;;;;;4994287;28;20541;-67
2024/01/05 02:22:19;;;;;;;1567.03;999.90;;;;;;;;;;4994323;28;20106;-67
2024/01/05 02:24:46;;;;;;;1567.97;999.90;;;;;;;;;;4994352;28;20121;-67
2024/01/05 02:27:12;;;;;;;1551.30;999.90;;;;;;;;;;4994347;28;20090;-67
2024/01/05 02:29:39;;;;;;;1551.07;999.90;;;;;;;;;;4994204;28;20384;-67
2024/01/05 02:32:06;;;;;;;1548.32;999.90;;;;;;;;;;4994278;28;20080;-67
2024/01/05 02:34:32;;;;;;;1449.47;999.90;;;;;;;;;;4994276;28;20498;-67
2024/01/05 02:36:59;;;;;;;1563.72;999.90;;;;;;;;;;4994242;28;20058;-68
2024/01/05 02:39:25;;;;;;;1535.88;999.90;;;;;;;;;;4994117;28;20027;-68
2024/01/05 02:41:52;;;;;;;1514.03;999.90;;;;;;;;;;5016414;23;20403;-67
2024/01/05 02:44:18;;;;;;;1481.45;999.90;;;;;;;;;;5032037;28;20045;-68
2024/01/05 02:46:45;;;;;;;1418.95;999.90;;;;;;;;;;5033528;28;20049;-67
2024/01/05 02:49:11;;;;;;;1509.22;999.90;;;;;;;;;;5015648;28;20382;-67
2024/01/05 02:51:39;;;;;;;1412.90;999.90;;;;;;;;;;5032920;28;20021;-67
2024/01/05 02:54:06;;;;;;;1522.63;999.90;;;;;;;;;;5033933;28;20021;-68
2024/01/05 02:56:33;;;;;;;1409.25;999.90;;;;;;;;;;5036448;28;20474;-68
2024/01/05 02:59:00;;;;;;;1430.68;999.90;;;;;;;;;;5036570;28;20108;-68
2024/01/05 03:01:27;;;;;;;1524.20;999.90;;;;;;;;;;5036245;28;20030;-68
2024/01/05 03:03:54;;;;;;;1411.28;999.90;;;;;;;;;;5036482;28;20026;-68
2024/01/05 03:06:20;;;;;;;1418.07;999.90;;;;;;;;;;5036439;28;20022;-67
2024/01/05 03:08:47;;;;;;;1451.80;999.90;;;;;;;;;;5035659;28;20037;-69
2024/01/05 03:11:14;;;;;;;1441.32;999.90;;;;;;;;;;5036439;28;20018;-68
2024/01/05 03:13:41;;;;;;;1524.63;999.90;;;;;;;;;;5036119;28;20029;-68
2024/01/05 03:16:07;;;;;;;1491.22;999.90;;;;;;;;;;5035956;28;20493;-68
2024/01/05 03:18:35;;;;;;;1489.57;999.90;;;;;;;;;;5036384;28;20040;-66
2024/01/05 03:21:01;;;;;;;1519.78;999.90;;;;;;;;;;5035781;28;20057;-67
2024/01/05 03:23:28;;;;;;;1510.57;999.90;;;;;;;;;;5035767;28;20021;-69
2024/01/05 03:25:56;;;;;;;1461.60;999.90;;;;;;;;;;5035800;28;20040;-69
2024/01/05 03:28:24;;;;;;;1462.45;999.90;;;;;;;;;;5035003;28;20437;-68
2024/01/05 03:30:51;;;;;;;1431.53;999.90;;;;;;;;;;5033758;28;20017;-67
2024/01/05 03:33:20;;;;;;;1436.45;999.90;;;;;;;;;;5035092;28;20021;-67
2024/01/05 03:35:46;;;;;;;1485.35;999.90;;;;;;;;;;5035324;28;20051;-68
2024/01/05 03:38:13;;;;;;;1476.40;999.90;;;;;;;;;;5036725;28;20025;-67
2024/01/05 03:40:39;;;;;;;1525.32;999.90;;;;;;;;;;5036033;28;20033;-67
2024/01/05 03:43:06;;;;;;;1538.75;999.90;;;;;;;;;;5035389;28;20099;-68
2024/01/05 03:45:33;;;;;;;1521.43;999.90;;;;;;;;;;5034387;28;20033;-66
2024/01/05 03:47:59;;;;;;;1506.45;999.90;;;;;;;;;;5035309;28;20025;-68
2024/01/05 03:50:26;;;;;;;1520.85;999.90;;;;;;;;;;5025322;28;20018;-68
2024/01/05 03:52:52;;;;;;;1435.28;999.90;;;;;;;;;;5034726;28;20387;-66
2024/01/05 03:55:19;;;;;;;1547.45;999.90;;;;;;;;;;5034602;28;20029;-66
2024/01/05 03:57:46;;;;;;;1560.38;999.90;;;;;;;;;;5034705;28;20032;-67
2024/01/05 04:00:13;;;;;;;1499.93;999.90;;;;;;;;;;5035003;28;20488;-69
2024/01/05 04:02:39;;;;;;;1462.70;999.90;;;;;;;;;;5033315;28;20026;-68
2024/01/05 04:05:06;;;;;;;1491.38;999.90;;;;;;;;;;5034559;28;20024;-67
2024/01/05 04:07:33;;;;;;;1431.70;999.90;;;;;;;;;;5034209;28;20553;-67
2024/01/05 04:09:59;;;;;;;1482.80;999.90;;;;;;;;;;5034373;28;20072;-67
2024/01/05 04:12:26;;;;;;;1444.88;999.90;;;;;;;;;;5034980;28;20482;-68
2024/01/05 04:14:53;;;;;;;1486.20;999.90;;;;;;;;;;5034790;28;20025;-68
2024/01/05 04:17:20;;;;;;;1446.50;999.90;;;;;;;;;;5034960;28;20044;-68
2024/01/05 04:19:48;;;;;;;1422.50;999.90;;;;;;;;;;5034872;28;20049;-67
2024/01/05 04:22:14;;;;;;;1533.22;999.90;;;;;;;;;;5034324;28;20087;-67
2024/01/05 04:24:41;;;;;;;1473.22;999.90;;;;;;;;;;5034753;28;20036;-67
2024/01/05 04:27:07;;;;;;;1547.45;999.90;;;;;;;;;;5034750;28;20028;-66
2024/01/05 04:29:34;;;;;;;1518.68;999.90;;;;;;;;;;5034513;28;20048;-68
2024/01/05 04:32:01;;;;;;;1506.75;999.90;;;;;;;;;;5034481;28;20049;-66
2024/01/05 04:34:27;;;;;;;1465.75;999.90;;;;;;;;;;5034518;28;20022;-67
2024/01/05 04:36:54;;;;;;;1461.55;999.90;;;;;;;;;;5034476;28;20028;-68
2024/01/05 04:39:20;;;;;;;1575.53;999.90;;;;;;;;;;5034276;28;20044;-68
2024/01/05 04:41:47;;;;;;;1526.50;999.90;;;;;;;;;;5034565;28;20164;-67
2024/01/05 04:44:14;;;;;;;1539.50;999.90;;;;;;;;;;5033742;28;20049;-68
2024/01/05 04:46:40;;;;;;;1550.40;999.90;;;;;;;;;;5034141;28;20485;-68
2024/01/05 04:49:07;;;;;;;1523.20;999.90;;;;;;;;;;5034313;28;20056;-68
2024/01/05 04:51:34;;;;;;;1522.47;999.90;;;;;;;;;;5034225;28;20021;-68
2024/01/05 04:54:00;;;;;;;1577.60;999.90;;;;;;;;;;5033950;28;20029;-68
2024/01/05 04:56:27;;;;;;;1578.57;999.90;;;;;;;;;;5034117;28;20471;-68
2024/01/05 04:58:54;;;;;;;1565.85;999.90;;;;;;;;;;5034137;28;20030;-68
2024/01/05 05:01:21;;;;;;;1568.93;999.90;;;;;;;;;;5033915;28;20074;-68
2024/01/05 05:03:47;;;;;;;1555.35;999.90;;;;;;;;;;5034163;28;20430;-68
2024/01/05 05:06:14;;;;;;;1497.40;999.90;;;;;;;;;;5033923;28;20025;-68
2024/01/05 05:08:40;;;;;;;1489.95;999.90;;;;;;;;;;5033629;28;20021;-68
2024/01/05 05:11:07;;;;;;;1501.97;999.90;;;;;;;;;;5033840;28;20017;-68
2024/01/05 05:13:34;;;;;;;1484.75;999.90;;;;;;;;;;5033718;28;20024;-68
2024/01/05 05:16:01;;;;;;;1462.18;999.90;;;;;;;;;;5033673;28;20033;-69
2024/01/05 05:18:27;;;;;;;1509.00;999.90;;;;;;;;;;5032657;28;20080;-69
2024/01/05 05:20:54;;;;;;;1511.15;999.90;;;;;;;;;;5033726;28;20052;-68
2024/01/05 05:23:21;;;;;;;1517.97;999.90;;;;;;;;;;5033612;28;20084;-68
2024/01/05 05:25:47;;;;;;;1508.35;999.90;;;;;;;;;;5033647;28;20433;-68
2024/01/05 05:28:14;;;;;;;1502.03;999.90;;;;;;;;;;5033599;28;20185;-67
2024/01/05 05:30:40;;;;;;;1511.15;999.90;;;;;;;;;;5033419;28;20022;-68
2024/01/05 05:33:07;;;;;;;1524.30;999.90;;;;;;;;;;5033563;28;20025;-68
2024/01/05 05:35:34;;;;;;;1527.55;999.90;;;;;;;;;;5033584;28;20447;-68
2024/01/05 05:38:03;;;;;;;1522.53;999.90;;;;;;;;;;5033401;28;20025;-68
2024/01/05 05:40:30;;;;;;;1518.93;999.90;;;;;;;;;;5033430;28;20037;-68
2024/01/05 05:42:57;;;;;;;1532.05;999.90;;;;;;;;;;5033336;28;20041;-68
2024/01/05 05:45:23;;;;;;;1549.90;999.90;;;;;;;;;;5033257;28;20033;-68
2024/01/05 05:47:51;;;;;;;1543.53;999.90;;;;;;;;;;5033349;28;20077;-68
2024/01/05 05:50:17;;;;;;;1545.57;999.90;;;;;;;;;;5033387;28;20035;-67
2024/01/05 05:52:45;;;;;;;1546.93;999.90;;;;;;;;;;5033589;28;20476;-71
2024/01/05 05:55:12;;;;;;;1531.55;999.90;;;;;;;;;;5033284;28;20025;-66
2024/01/05 05:57:40;;;;;;;1508.57;999.90;;;;;;;;;;5032574;28;20052;-65
2024/01/05 06:00:08;;;;;;;1536.43;999.90;;;;;;;;;;5033088;28;20022;-67
2024/01/05 06:02:34;;;;;;;1560.68;999.90;;;;;;;;;;5033170;28;20021;-66
2024/01/05 06:05:01;;;;;;;1574.88;999.90;;;;;;;;;;5033153;28;20537;-67
2024/01/05 06:07:28;;;;;;;1561.50;999.90;;;;;;;;;;5033102;28;20026;-67
2024/01/05 06:09:54;;;;;;;1575.80;999.90;;;;;;;;;;5033103;28;20032;-66
2024/01/05 06:12:21;;;;;;;1565.63;999.90;;;;;;;;;;5033110;28;20026;-67
2024/01/05 06:14:47;;;;;;;1557.22;999.90;;;;;;;;;;5033105;28;20029;-65
2024/01/05 06:17:14;;;;;;;1532.93;999.90;;;;;;;;;;5032871;28;20033;-66
2024/01/05 06:19:40;;;;;;;1529.50;999.90;;;;;;;;;;5032903;28;20036;-67
2024/01/05 06:22:07;;;;;;;1525.85;999.90;;;;;;;;;;5032878;28;20022;-66
2024/01/05 06:24:34;;;;;;;1532.70;999.90;;;;;;;;;;5031900;28;20035;-65
2024/01/05 06:27:01;;;;;;;1534.20;999.90;;;;;;;;;;5032203;28;20075;-65
2024/01/05 06:29:28;;;;;;;1559.63;999.90;;;;;;;;;;5032993;28;20025;-66
2024/01/05 06:31:55;;;;;;;1513.60;999.90;;;;;;;;;;5035764;28;20064;-65
2024/01/05 06:34:21;;;;;;;1541.30;999.90;;;;;;;;;;5035892;28;20068;-66
2024/01/05 06:36:48;;;;;;;1531.10;999.90;;;;;;;;;;5035778;28;20030;-67
2024/01/05 06:39:15;;;;;;;1529.72;999.90;;;;;;;;;;5035805;28;20034;-67
2024/01/05 06:41:41;;;;;;;1526.45;999.90;;;;;;;;;;5035714;28;20022;-67
2024/01/05 06:44:08;;;;;;;1532.53;999.90;;;;;;;;;;5035450;28;20414;-68
2024/01/05 06:46:34;;;;;;;1552.78;999.90;;;;;;;;;;5035634;28;20029;-67
2024/01/05 06:49:01;;;;;;;1543.38;999.90;;;;;;;;;;5035673;28;20474;-68
2024/01/05 06:51:31;;;;;;;1516.43;999.90;;;;;;;;;;5035646;28;20034;-68
2024/01/05 06:53:58;;;;;;;1523.88;999.90;;;;;;;;;;5035613;28;20471;-67
2024/01/05 06:56:27;;;;;;;1563.55;999.90;;;;;;;;;;5035430;28;20040;-67
2024/01/05 06:58:55;;;;;;;1563.72;999.90;;;;;;;;;;5035472;28;20056;-66
2024/01/05 07:01:22;;;;;;;1566.75;999.90;;;;;;;;;;5034570;28;20025;-67
2024/01/05 07:03:49;;;;;;;1554.05;999.90;;;;;;;;;;5034834;28;20036;-67
2024/01/05 07:06:16;;;;;;;1567.30;999.90;;;;;;;;;;5032091;28;20033;-66
2024/01/05 07:08:42;;;;;;;1569.80;999.90;;;;;;;;;;5034918;28;20013;-69
2024/01/05 07:11:10;;;;;;;1574.43;999.90;;;;;;;;;;5034732;28;20028;-69
2024/01/05 07:13:37;;;;;;;1576.47;999.90;;;;;;;;;;5034859;28;20101;-68
2024/01/05 07:16:03;;;;;;;1552.70;999.90;;;;;;;;;;5034394;28;20052;-68
2024/01/05 07:18:31;;;;;;;1530.95;999.90;;;;;;;;;;5034603;28;20028;-68
2024/01/05 07:20:58;;;;;;;1544.57;999.90;;;;;;;;;;5034534;28;20371;-68
2024/01/05 07:23:24;;;;;;;1540.45;999.90;;;;;;;;;;5033963;28;20088;-68
2024/01/05 07:25:51;;;;;;;1543.45;999.90;;;;;;;;;;5034290;28;20021;-68
2024/01/05 07:28:17;;;;;;;1531.10;999.90;;;;;;;;;;5034560;28;20029;-67
2024/01/05 07:30:44;;;;;;;1534.07;999.90;;;;;;;;;;5034363;28;20023;-68
2024/01/05 07:33:11;;;;;;;1548.50;999.90;;;;;;;;;;5033951;28;20026;-69
2024/01/05 07:35:38;;;;;;;1551.40;999.90;;;;;;;;;;5034424;28;20037;-68
2024/01/05 07:38:04;;;;;;;1553.40;999.90;;;;;;;;;;5034410;28;20044;-68
2024/01/05 07:40:31;;;;;;;1554.75;999.90;;;;;;;;;;5033260;28;20025;-68
2024/01/05 07:42:58;;;;;;;1557.85;999.90;;;;;;;;;;5033708;28;20057;-68
2024/01/05 07:45:24;;;;;;;1545.35;999.90;;;;;;;;;;5033901;28;20021;-68
2024/01/05 07:47:52;;;;;;;1561.30;999.90;;;;;;;;;;5034058;28;20025;-65
2024/01/05 07:50:19;;;;;;;1542.40;999.90;;;;;;;;;;5033979;28;20091;-69
2024/01/05 07:52:46;;;;;;;1550.53;999.90;;;;;;;;;;5033344;28;20018;-69
2024/01/05 07:55:12;;;;;;;1550.50;999.90;;;;;;;;;;5014784;28;20057;-68
2024/01/05 07:57:39;;;;;;;1541.05;999.90;;;;;;;;;;5033576;28;20497;-68
2024/01/05 08:00:06;;;;;;;1559.40;999.90;;;;;;;;;;5033679;28;20029;-69
2024/01/05 08:02:33;;;;;;;1556.43;999.90;;;;;;;;;;5033538;28;20029;-67
2024/01/05 08:05:00;;;;;;;1572.30;999.90;;;;;;;;;;5033630;28;20085;-67
2024/01/05 08:07:26;;;;;;;1557.00;999.90;;;;;;;;;;5034416;28;20147;-66
2024/01/05 08:09:53;;;;;;;1549.68;999.90;;;;;;;;;;5034237;28;20033;-68
2024/01/05 08:12:20;;;;;;;1555.50;999.90;;;;;;;;;;5034323;28;20029;-67
2024/01/05 08:14:47;;;;;;;1554.78;999.90;;;;;;;;;;5033338;28;20421;-68
2024/01/05 08:17:14;;;;;;;1563.55;999.90;;;;;;;;;;5033740;28;20034;-68
2024/01/05 08:19:41;;;;;;;1558.22;999.90;;;;;;;;;;5033233;28;20129;-67
2024/01/05 08:22:07;;;;;;;1543.38;999.90;;;;;;;;;;5033976;28;20033;-68
2024/01/05 08:24:34;;;;;;;1560.88;999.90;;;;;;;;;;5033825;28;20029;-68
2024/01/05 08:27:01;;;;;;;1558.07;999.90;;;;;;;;;;5033807;28;20034;-67
2024/01/05 08:29:27;;;;;;;1560.97;999.90;;;;;;;;;;5033757;28;20305;-68
2024/01/05 08:31:55;;;;;;;1564.57;999.90;;;;;;;;;;5034005;28;20022;-66
2024/01/05 08:34:22;;;;;;;1556.18;999.90;;;;;;;;;;5033552;28;20029;-66
2024/01/05 08:36:48;;;;;;;1560.63;999.90;;;;;;;;;;5033356;28;20087;-67
2024/01/05 08:39:15;;;;;;;1551.57;999.90;;;;;;;;;;5033017;28;20025;-69
2024/01/05 08:41:43;;;;;;;1561.60;999.90;;;;;;;;;;5033188;28;20033;-65
2024/01/05 08:44:10;;;;;;;1558.28;999.90;;;;;;;;;;5032447;28;20494;-66
2024/01/05 08:46:37;;;;;;;1552.93;999.90;;;;;;;;;;5032851;28;20394;-66
2024/01/05 08:49:04;;;;;;;1549.55;999.90;;;;;;;;;;5033155;28;20032;-69
2024/01/05 08:51:31;;;;;;;1565.05;999.90;;;;;;;;;;5033379;28;20032;-70
2024/01/05 08:54:01;;;;;;;1561.28;999.90;;;;;;;;;;5032863;28;20030;-67
2024/01/05 08:56:28;;;;;;;1548.35;999.90;;;;;;;;;;5032350;28;20040;-70
2024/01/05 08:58:54;;;;;;;1564.00;999.90;;;;;;;;;;5032565;28;20029;-68
2024/01/05 09:01:21;;;;;;;1563.80;999.90;;;;;;;;;;5032121;28;20474;-71
2024/01/05 09:03:48;;;;;;;1564.32;999.90;;;;;;;;;;5032548;28;20017;-71
2024/01/05 09:06:14;;;;;;;1565.53;999.90;;;;;;;;;;5032415;28;20037;-71
2024/01/05 09:08:41;;;;;;;1553.60;999.90;;;;;;;;;;5032088;28;20065;-70
2024/01/05 09:11:07;;;;;;;1569.45;999.90;;;;;;;;;;5032361;28;20105;-70
2024/01/05 09:13:34;;;;;;;1568.35;999.90;;;;;;;;;;5032205;28;20017;-69
2024/01/05 09:16:01;;;;;;;1566.85;999.90;;;;;;;;;;5032355;28;20163;-69
2024/01/05 09:18:33;;;;;;;1561.97;999.90;;;;;;;;;;5032436;28;20029;-70
2024/01/05 09:21:00;;;;;;;1572.40;999.90;;;;;;;;;;5030696;28;20397;-70
2024/01/05 09:23:27;;;;;;;1558.03;999.90;;;;;;;;;;5032811;28;20368;-70
2024/01/05 09:25:54;;;;;;;1567.88;999.90;;;;;;;;;;5033642;28;20026;-70
2024/01/05 09:28:20;;;;;;;1567.85;999.90;;;;;;;;;;5030719;28;20022;-69
2024/01/05 09:30:48;;;;;;;1564.88;999.90;;;;;;;;;;5033356;28;20450;-65
2024/01/05 09:33:15;;;;;;;1554.28;999.90;;;;;;;;;;5033477;28;20414;-69
2024/01/05 09:35:42;;;;;;;1553.75;999.90;;;;;;;;;;5033213;28;20030;-66
2024/01/05 09:38:09;;;;;;;1558.35;999.90;;;;;;;;;;5033044;28;20025;-68
2024/01/05 09:40:35;;;;;;;1555.78;999.90;;;;;;;;;;5033213;28;20026;-67
2024/01/05 09:43:02;;;;;;;1567.75;999.90;;;;;;;;;;5032952;28;20039;-69
2024/01/05 09:45:29;;;;;;;1564.57;999.90;;;;;;;;;;5033021;28;20033;-67
2024/01/05 09:47:59;;;;;;;1570.68;999.90;;;;;;;;;;5033422;28;20101;-67
2024/01/05 09:50:26;;;;;;;1575.40;999.90;;;;;;;;;;5026395;28;20028;-70
2024/01/05 09:52:52;;;;;;;1564.50;999.90;;;;;;;;;;5033397;28;20041;-67
2024/01/05 09:55:19;;;;;;;1583.82;999.90;;;;;;;;;;5032937;28;20072;-67
2024/01/05 09:57:46;;;;;;;1584.28;999.90;;;;;;;;;;5032853;28;20119;-68
2024/01/05 10:00:15;;;;;;;1583.40;999.90;;;;;;;;;;5033001;28;20048;-67
2024/01/05 10:02:43;;;;;;;1566.78;999.90;;;;;;;;;;5033345;28;20022;-67
2024/01/05 10:05:10;;;;;;;1571.20;999.90;;;;;;;;;;5035791;28;20032;-68
2024/01/05 10:07:46;;;;;;;1550.30;999.90;;;;;;;;;;5037595;28;20075;-68
2024/01/05 10:10:13;;;;;;;1519.15;999.90;;;;;;;;;;5035234;28;20017;-68
2024/01/05 10:12:40;;;;;;;1552.72;999.90;;;;;;;;;;5037376;28;20026;-67
2024/01/05 10:15:07;;;;;;;1559.40;999.90;;;;;;;;;;5037153;28;20417;-66
2024/01/05 10:17:34;;;;;;;1568.70;999.90;;;;;;;;;;5037225;28;20037;-68
2024/01/05 10:22:33;;;;;;;1580.37;999.90;;;;;;;;;;5035781;28;20045;-68
2024/01/05 10:25:14;;;;;;;1586.35;999.90;;;;;;;;;;5037411;28;20018;-69
2024/01/05 10:27:40;;;;;;;1585.35;999.90;;;;;;;;;;5035684;28;20367;-66
2024/01/05 10:30:07;;;;;;;1568.80;999.90;;;;;;;;;;5037278;28;20014;-69
2024/01/05 10:32:34;;;;;;;1587.32;999.90;;;;;;;;;;5037256;28;20494;-70
2024/01/05 10:35:03;;;;;;;1571.95;999.90;;;;;;;;;;5036738;28;20029;-70
2024/01/05 10:37:29;;;;;;;1566.93;999.90;;;;;;;;;;5036786;28;20101;-67
2024/01/05 10:39:56;;;;;;;1588.60;999.90;;;;;;;;;;5052595;22;20063;-69
2024/01/05 10:42:23;;;;;;;1562.97;999.90;;;;;;;;;;5056998;23;20151;-68
2024/01/05 10:44:51;;;;;;;1556.38;999.90;;;;;;;;;;5039328;28;20099;-68
2024/01/05 10:47:21;;;;;;;1549.90;999.90;;;;;;;;;;5037412;28;20018;-68
2024/01/05 10:49:49;;;;;;;1554.57;999.90;;;;;;;;;;5037296;28;20024;-67
2024/01/05 10:52:19;;;;;;;1552.13;999.90;;;;;;;;;;5037482;28;20025;-66
2024/01/05 10:54:47;;;;;;;1545.78;999.90;;;;;;;;;;5037109;28;20021;-65
2024/01/05 10:57:14;;;;;;;1558.85;999.90;;;;;;;;;;5037589;28;20498;-68
2024/01/05 10:59:51;;;;;;;1556.30;999.90;;;;;;;;;;5037202;28;20429;-67
2024/01/05 11:02:21;;;;;;;1529.32;999.90;;;;;;;;;;5032202;28;20030;-67
2024/01/05 11:04:54;;;;;;;1552.53;999.90;;;;;;;;;;5034448;28;20029;-67
2024/01/05 11:07:22;;;;;;;1556.05;999.90;;;;;;;;;;5034724;28;20037;-67
2024/01/05 11:09:49;;;;;;;1545.78;999.90;;;;;;;;;;5033873;28;20052;-67
2024/01/05 11:12:29;;;;;;;1545.68;999.90;;;;;;;;;;5034472;28;20021;-65
2024/01/05 11:15:07;;;;;;;1541.13;999.90;;;;;;;;;;5032956;28;20117;-67
2024/01/05 11:17:48;;;;;;;1529.03;999.90;;;;;;;;;;5032175;28;20044;-68
2024/01/05 11:20:15;;;;;;;1548.65;999.90;;;;;;;;;;5033850;28;20530;-66
2024/01/05 11:22:45;;;;;;;1538.85;999.90;;;;;;;;;;5034010;28;20090;-68
2024/01/05 11:25:11;;;;;;;1563.30;999.90;;;;;;;;;;5031853;28;20037;-68
2024/01/05 11:27:38;;;;;;;1552.82;999.90;;;;;;;;;;5026865;28;20013;-68
2024/01/05 11:30:08;;;;;;;1537.05;999.90;;;;;;;;;;5031394;28;20100;-69
2024/01/05 11:32:35;;;;;;;1534.63;999.90;;;;;;;;;;5029835;28;20053;-67
2024/01/05 11:35:04;;;;;;;1539.30;999.90;;;;;;;;;;5026951;28;20017;-66
2024/01/05 11:37:32;;;;;;;1504.32;999.90;;;;;;;;;;5026365;28;20064;-67
2024/01/05 11:40:00;;;;;;;1536.45;999.90;;;;;;;;;;5025939;28;20021;-67
2024/01/05 11:42:28;;;;;;;1538.32;999.90;;;;;;;;;;5025200;28;20521;-67
2024/01/05 11:44:57;;;;;;;1554.90;999.90;;;;;;;;;;5024764;28;20112;-68
2024/01/05 11:47:33;;;;;;;1581.90;999.90;;;;;;;;;;5025725;28;20018;-67
2024/01/05 11:49:59;;;;;;;1620.20;999.90;;;;;;;;;;5025921;28;20022;-67
2024/01/05 11:52:26;;;;;;;1569.85;999.90;;;;;;;;;;5025259;28;20030;-65
2024/01/05 11:55:10;;;;;;;1565.13;999.90;;;;;;;;;;5024182;28;20029;-67
2024/01/05 11:57:37;;;;;;;1562.35;999.90;;;;;;;;;;5027028;28;20364;-67
2024/01/05 12:00:03;;;;;;;1580.47;999.90;;;;;;;;;;5025009;28;20030;-66
2024/01/05 12:02:30;;;;;;;1569.45;999.90;;;;;;;;;;5029736;28;20026;-65
2024/01/05 12:04:57;;;;;;;1589.07;999.90;;;;;;;;;;5030289;28;20108;-67
2024/01/05 12:07:25;;;;;;;1583.45;999.90;;;;;;;;;;5028986;28;20025;-67
2024/01/05 12:09:52;;;;;;;1592.60;999.90;;;;;;;;;;5030939;28;20026;-66
2024/01/05 12:12:19;;;;;;;1702.07;999.90;;;;;;;;;;5046834;28;20025;-68
2024/01/05 12:14:46;;;;;;;1609.53;999.90;;;;;;;;;;5035055;28;20112;-67
2024/01/05 12:17:13;;;;;;;1578.80;999.90;;;;;;;;;;5034858;28;20446;-67
2024/01/05 12:19:40;;;;;;;1593.65;999.90;;;;;;;;;;5035041;28;20021;-66
2024/01/05 12:22:08;;;;;;;1595.00;999.90;;;;;;;;;;5034892;28;20104;-66
2024/01/05 12:24:34;;;;;;;1571.53;999.90;;;;;;;;;;5034442;28;20029;-67
2024/01/05 12:27:01;;;;;;;1564.00;999.90;;;;;;;;;;5033727;28;20029;-67
2024/01/05 12:29:28;;;;;;;1563.05;999.90;;;;;;;;;;5034294;28;20467;-67
2024/01/05 12:31:54;;;;;;;1562.90;999.90;;;;;;;;;;5034279;28;20087;-67
2024/01/05 12:34:22;;;;;;;1566.50;999.90;;;;;;;;;;5034274;28;20018;-66
2024/01/05 12:36:48;;;;;;;1562.30;999.90;;;;;;;;;;5034167;28;20041;-68
2024/01/05 12:39:15;;;;;;;1540.75;999.90;;;;;;;;;;5033857;28;20025;-71
2024/01/05 12:41:45;;;;;;;1555.97;999.90;;;;;;;;;;5040583;28;20066;-65
2024/01/05 12:44:15;;;;;;;1547.95;999.90;;;;;;;;;;5042708;28;20052;-66
2024/01/05 12:46:46;;;;;;;1547.47;999.90;;;;;;;;;;5033260;28;20026;-65
2024/01/05 12:49:22;;;;;;;1537.03;999.90;;;;;;;;;;5033702;28;20037;-67
2024/01/05 12:51:50;;;;;;;1556.97;999.90;;;;;;;;;;5034000;28;20103;-66
2024/01/05 12:54:17;;;;;;;1558.45;999.90;;;;;;;;;;5033958;28;20029;-66
2024/01/05 12:56:46;;;;;;;1545.60;999.90;;;;;;;;;;5033405;28;20116;-66
2024/01/05 12:59:22;;;;;;;1557.60;999.90;;;;;;;;;;5033705;28;20029;-66
2024/01/05 13:01:48;;;;;;;1545.35;999.90;;;;;;;;;;5033524;28;20029;-67
2024/01/05 13:04:28;;;;;;;1555.80;999.90;;;;;;;;;;5033618;28;20354;-66
2024/01/05 13:06:55;;;;;;;1540.50;999.90;;;;;;;;;;5044265;28;20040;-68
2024/01/05 13:09:21;;;;;;;1541.82;999.90;;;;;;;;;;5033460;28;20038;-67
2024/01/05 13:11:57;;;;;;;1544.82;999.90;;;;;;;;;;5032917;28;20529;-68
2024/01/05 13:14:23;;;;;;;1561.60;999.90;;;;;;;;;;5033036;28;20107;-68
2024/01/05 13:16:50;;;;;;;1542.97;999.90;;;;;;;;;;5028075;28;20654;-67
2024/01/05 13:19:17;;;;;;;1530.15;999.90;;;;;;;;;;5023585;28;20034;-64
2024/01/05 13:21:43;;;;;;;1543.25;999.90;;;;;;;;;;5020980;28;20489;-67
2024/01/05 13:24:10;;;;;;;1543.35;999.90;;;;;;;;;;5026801;28;20040;-66
2024/01/05 13:26:36;;;;;;;1550.72;999.90;;;;;;;;;;5021855;28;20029;-70
2024/01/05 13:29:03;;;;;;;1548.97;999.90;;;;;;;;;;5031880;28;20100;-68
2024/01/05 13:31:29;;;;;;;1523.22;999.90;;;;;;;;;;5024988;28;20202;-68
2024/01/05 13:33:56;;;;;;;1531.75;999.90;;;;;;;;;;5023819;28;20078;-67
2024/01/05 13:36:23;;;;;;;1550.72;999.90;;;;;;;;;;5023015;28;20026;-66
2024/01/05 13:38:49;;;;;;;1540.50;999.90;;;;;;;;;;5027132;28;20029;-66
2024/01/05 13:41:16;;;;;;;1523.85;999.90;;;;;;;;;;5025231;28;20018;-67
2024/01/05 13:43:44;;;;;;;1505.18;999.90;;;;;;;;;;5021406;28;20065;-65